createdAt,value
2019-02-14T00:00:53.204Z,92.74
2019-02-14T00:01:53.137Z,92.37
2019-02-14T00:02:53.119Z,92.74
2019-02-14T00:03:53.164Z,92.63
2019-02-14T00:04:53.104Z,92.53
2019-02-14T00:05:53.091Z,92.47
2019-02-14T00:06:53.077Z,92.22
2019-02-14T00:07:53.070Z,92.02
2019-02-14T00:08:53.054Z,92.12
2019-02-14T00:09:53.092Z,92.02
2019-02-14T00:10:53.920Z,91.91
2019-02-14T00:11:53.023Z,92.22
2019-02-14T00:12:53.060Z,92.02
2019-02-14T00:13:53.043Z,91.50
2019-02-14T00:14:53.004Z,91.91
2019-02-14T00:15:53.029Z,91.50
2019-02-14T00:16:52.986Z,91.81
2019-02-14T00:17:53.040Z,91.91
2019-02-14T00:18:52.953Z,91.96
2019-02-14T00:19:53.001Z,91.81
2019-02-14T00:20:52.967Z,91.91
2019-02-14T00:21:52.927Z,91.96
2019-02-14T00:22:52.958Z,91.50
2019-02-14T00:23:52.905Z,92.12
2019-02-14T00:24:52.888Z,91.91
2019-02-14T00:25:52.917Z,91.81
2019-02-14T00:26:52.887Z,91.60
2019-02-14T00:27:52.852Z,91.91
2019-02-14T00:28:52.845Z,91.19
2019-02-14T00:29:52.828Z,91.09
2019-02-14T00:30:52.828Z,90.78
2019-02-14T00:31:52.860Z,91.85
2019-02-14T00:32:52.842Z,91.71
2019-02-14T00:33:52.798Z,91.60
2019-02-14T00:34:52.788Z,91.50
2019-02-14T00:35:52.844Z,91.81
2019-02-14T00:36:52.755Z,91.96
2019-02-14T00:37:52.783Z,92.12
2019-02-14T00:38:52.757Z,91.30
2019-02-14T00:39:52.764Z,91.71
2019-02-14T00:40:52.708Z,91.91
2019-02-14T00:41:52.710Z,91.60
2019-02-14T00:42:52.689Z,91.75
2019-02-14T00:43:52.733Z,91.71
2019-02-14T00:44:52.838Z,91.71
2019-02-14T00:45:52.669Z,91.85
2019-02-14T00:46:52.651Z,91.30
2019-02-14T00:47:52.644Z,91.60
2019-02-14T00:48:52.621Z,92.06
2019-02-14T00:49:52.674Z,92.02
2019-02-14T00:50:52.607Z,91.81
2019-02-14T00:51:52.588Z,91.50
2019-02-14T00:52:52.581Z,91.30
2019-02-14T00:53:52.607Z,91.30
2019-02-14T00:54:52.561Z,91.03
2019-02-14T00:55:52.594Z,91.19
2019-02-14T00:56:52.568Z,91.30
2019-02-14T00:57:52.573Z,90.99
2019-02-14T00:58:52.516Z,91.19
2019-02-14T00:59:52.506Z,91.09
2019-02-14T01:00:52.496Z,91.30
2019-02-14T01:01:52.515Z,91.03
2019-02-14T01:02:52.478Z,91.03
2019-02-14T01:03:52.516Z,91.03
2019-02-14T01:04:52.452Z,91.13
2019-02-14T01:05:52.439Z,91.19
2019-02-14T01:06:52.430Z,91.30
2019-02-14T01:07:52.440Z,91.19
2019-02-14T01:08:52.445Z,90.82
2019-02-14T01:09:52.402Z,91.30
2019-02-14T01:10:52.390Z,91.40
2019-02-14T01:11:52.414Z,90.99
2019-02-14T01:12:52.365Z,91.24
2019-02-14T01:13:52.372Z,91.13
2019-02-14T01:14:52.382Z,90.99
2019-02-14T01:15:52.342Z,91.09
2019-02-14T01:16:52.381Z,91.30
2019-02-14T01:17:52.319Z,91.40
2019-02-14T01:18:52.302Z,90.57
2019-02-14T01:19:52.318Z,91.19
2019-02-14T01:20:52.333Z,91.19
2019-02-14T01:21:52.971Z,90.26
2019-02-14T01:22:52.266Z,90.82
2019-02-14T01:23:52.265Z,90.72
2019-02-14T01:24:52.244Z,91.13
2019-02-14T01:25:52.276Z,90.61
2019-02-14T01:26:52.223Z,91.34
2019-02-14T01:27:52.277Z,91.03
2019-02-14T01:28:52.210Z,90.92
2019-02-14T01:29:52.184Z,90.20
2019-02-14T01:30:52.189Z,90.31
2019-02-14T01:31:52.206Z,90.00
2019-02-14T01:32:52.158Z,90.06
2019-02-14T01:33:52.140Z,90.16
2019-02-14T01:34:52.134Z,90.16
2019-02-14T01:35:52.158Z,90.37
2019-02-14T01:36:52.131Z,90.16
2019-02-14T01:37:52.161Z,90.47
2019-02-14T01:38:52.131Z,90.16
2019-02-14T01:39:52.128Z,90.20
2019-02-14T01:40:52.107Z,90.41
2019-02-14T01:41:52.064Z,89.58
2019-02-14T01:42:52.053Z,90.31
2019-02-14T01:43:52.082Z,90.26
2019-02-14T01:44:52.022Z,90.31
2019-02-14T01:45:52.016Z,90.10
2019-02-14T01:46:52.009Z,90.31
2019-02-14T01:47:52.032Z,90.20
2019-02-14T01:48:52.100Z,90.31
2019-02-14T01:49:51.986Z,90.31
2019-02-14T01:50:51.972Z,90.31
2019-02-14T01:51:51.948Z,90.00
2019-02-14T01:52:51.956Z,90.31
2019-02-14T01:53:51.939Z,89.79
2019-02-14T01:54:51.970Z,90.10
2019-02-14T01:55:51.929Z,90.31
2019-02-14T01:56:51.904Z,90.61
2019-02-14T01:57:51.952Z,90.10
2019-02-14T01:58:51.905Z,90.51
2019-02-14T01:59:51.912Z,90.41
2019-02-14T02:00:51.858Z,90.61
2019-02-14T02:01:51.891Z,90.31
2019-02-14T02:02:51.841Z,90.31
2019-02-14T02:03:51.863Z,90.41
2019-02-14T02:04:51.826Z,89.79
2019-02-14T02:05:51.953Z,90.31
2019-02-14T02:06:51.802Z,90.20
2019-02-14T02:07:51.808Z,90.20
2019-02-14T02:08:51.773Z,90.20
2019-02-14T02:09:51.760Z,89.38
2019-02-14T02:10:51.825Z,89.28
2019-02-14T02:11:51.739Z,89.38
2019-02-14T02:12:51.739Z,89.58
2019-02-14T02:13:51.727Z,89.58
2019-02-14T02:14:51.713Z,89.28
2019-02-14T02:15:51.703Z,89.17
2019-02-14T02:16:51.762Z,89.03
2019-02-14T02:17:51.676Z,88.96
2019-02-14T02:18:51.691Z,89.38
2019-02-14T02:19:51.684Z,89.17
2019-02-14T02:20:51.652Z,88.96
2019-02-14T02:21:51.945Z,88.86
2019-02-14T02:22:51.659Z,88.45
2019-02-14T02:23:51.646Z,89.34
2019-02-14T02:24:51.622Z,89.28
2019-02-14T02:25:51.614Z,88.82
2019-02-14T02:26:51.633Z,88.65
2019-02-14T02:27:51.609Z,88.82
2019-02-14T02:28:51.557Z,89.03
2019-02-14T02:29:51.561Z,88.20
2019-02-14T02:30:51.558Z,89.03
2019-02-14T02:31:51.559Z,88.31
2019-02-14T02:32:51.516Z,88.92
2019-02-14T02:33:51.547Z,88.65
2019-02-14T02:34:51.496Z,88.51
2019-02-14T02:35:59.951Z,88.72
2019-02-14T02:36:52.474Z,89.03
2019-02-14T02:37:51.506Z,89.03
2019-02-14T02:38:51.510Z,87.99
2019-02-14T02:39:51.466Z,87.79
2019-02-14T02:40:51.446Z,88.31
2019-02-14T02:41:51.430Z,88.20
2019-02-14T02:42:51.422Z,88.10
2019-02-14T02:43:51.420Z,88.20
2019-02-14T02:44:51.428Z,88.10
2019-02-14T02:45:51.382Z,87.99
2019-02-14T02:46:51.374Z,87.83
2019-02-14T02:47:51.409Z,88.10
2019-02-14T02:48:51.357Z,87.69
2019-02-14T02:49:51.336Z,87.99
2019-02-14T02:50:51.369Z,87.79
2019-02-14T02:51:51.316Z,87.79
2019-02-14T02:52:51.316Z,87.79
2019-02-14T02:53:51.357Z,88.10
2019-02-14T02:54:51.319Z,88.10
2019-02-14T02:55:51.280Z,87.59
2019-02-14T02:56:51.264Z,87.79
2019-02-14T02:57:51.251Z,87.17
2019-02-14T02:58:51.245Z,87.27
2019-02-14T02:59:51.293Z,87.69
2019-02-14T03:00:51.228Z,87.27
2019-02-14T03:01:51.254Z,87.79
2019-02-14T03:02:51.204Z,88.20
2019-02-14T03:03:51.185Z,87.69
2019-02-14T03:04:51.226Z,87.59
2019-02-14T03:05:51.198Z,87.69
2019-02-14T03:06:51.147Z,87.99
2019-02-14T03:07:51.140Z,88.20
2019-02-14T03:08:51.134Z,88.10
2019-02-14T03:09:51.120Z,87.90
2019-02-14T03:10:51.147Z,87.79
2019-02-14T03:11:51.138Z,88.31
2019-02-14T03:12:51.088Z,87.59
2019-02-14T03:13:51.073Z,88.35
2019-02-14T03:14:51.094Z,87.69
2019-02-14T03:15:51.058Z,87.59
2019-02-14T03:16:51.099Z,88.92
2019-02-14T03:17:51.033Z,87.90
2019-02-14T03:18:51.023Z,88.20
2019-02-14T03:19:51.047Z,88.10
2019-02-14T03:20:51.001Z,88.31
2019-02-14T03:21:51.003Z,87.99
2019-02-14T03:22:51.038Z,88.10
2019-02-14T03:23:50.994Z,88.10
2019-02-14T03:24:50.963Z,88.24
2019-02-14T03:25:50.994Z,87.79
2019-02-14T03:26:50.983Z,87.69
2019-02-14T03:27:50.977Z,87.69
2019-02-14T03:28:50.920Z,87.79
2019-02-14T03:29:50.903Z,87.27
2019-02-14T03:30:50.902Z,86.87
2019-02-14T03:31:50.944Z,86.97
2019-02-14T03:32:50.897Z,86.87
2019-02-14T03:33:50.870Z,87.07
2019-02-14T03:34:50.883Z,86.76
2019-02-14T03:35:50.846Z,87.69
2019-02-14T03:36:50.829Z,87.48
2019-02-14T03:37:50.875Z,86.76
2019-02-14T03:38:50.822Z,87.07
2019-02-14T03:39:50.809Z,87.17
2019-02-14T03:40:50.829Z,87.48
2019-02-14T03:41:50.780Z,86.87
2019-02-14T03:42:50.767Z,86.90
2019-02-14T03:43:50.755Z,87.21
2019-02-14T03:44:50.795Z,87.27
2019-02-14T03:45:50.744Z,87.52
2019-02-14T03:46:50.760Z,87.52
2019-02-14T03:47:50.725Z,87.01
2019-02-14T03:48:50.708Z,86.70
2019-02-14T03:49:50.699Z,86.39
2019-02-14T03:50:50.686Z,86.60
2019-02-14T03:51:50.740Z,86.60
2019-02-14T03:52:50.663Z,86.70
2019-02-14T03:53:50.695Z,87.11
2019-02-14T03:54:50.644Z,86.70
2019-02-14T03:55:50.631Z,86.60
2019-02-14T03:56:50.624Z,86.49
2019-02-14T03:57:50.652Z,86.80
2019-02-14T03:58:50.595Z,87.11
2019-02-14T03:59:50.585Z,87.01
2019-02-14T04:00:50.576Z,86.39
2019-02-14T04:01:50.611Z,87.11
2019-02-14T04:02:50.553Z,86.60
2019-02-14T04:03:50.589Z,87.01
2019-02-14T04:04:50.539Z,86.66
2019-02-14T04:05:50.537Z,85.97
2019-02-14T04:06:50.508Z,86.39
2019-02-14T04:07:50.553Z,86.39
2019-02-14T04:08:50.497Z,86.39
2019-02-14T04:09:50.480Z,86.39
2019-02-14T04:10:50.471Z,86.29
2019-02-14T04:11:50.464Z,86.18
2019-02-14T04:12:50.528Z,86.60
2019-02-14T04:13:50.478Z,86.39
2019-02-14T04:14:50.427Z,86.08
2019-02-14T04:15:50.415Z,86.18
2019-02-14T04:16:50.404Z,86.18
2019-02-14T04:17:50.472Z,86.08
2019-02-14T04:18:50.414Z,86.39
2019-02-14T04:19:50.384Z,85.94
2019-02-14T04:20:50.356Z,85.87
2019-02-14T04:21:50.347Z,85.46
2019-02-14T04:22:50.378Z,85.87
2019-02-14T04:23:50.324Z,86.08
2019-02-14T04:24:50.388Z,85.31
2019-02-14T04:25:50.307Z,85.36
2019-02-14T04:26:50.298Z,85.87
2019-02-14T04:27:50.286Z,85.25
2019-02-14T04:28:50.339Z,85.57
2019-02-14T04:29:50.270Z,85.46
2019-02-14T04:30:50.249Z,85.05
2019-02-14T04:31:50.251Z,85.57
2019-02-14T04:32:50.239Z,85.46
2019-02-14T04:33:50.226Z,85.36
2019-02-14T04:34:50.259Z,85.05
2019-02-14T04:35:50.238Z,85.05
2019-02-14T04:36:50.185Z,85.15
2019-02-14T04:37:50.180Z,85.05
2019-02-14T04:38:50.163Z,85.25
2019-02-14T04:39:50.159Z,85.46
2019-02-14T04:40:50.194Z,84.94
2019-02-14T04:41:50.133Z,85.05
2019-02-14T04:42:50.126Z,85.36
2019-02-14T04:43:50.116Z,85.05
2019-02-14T04:44:50.136Z,85.05
2019-02-14T04:45:50.140Z,85.15
2019-02-14T04:46:50.081Z,85.15
2019-02-14T04:47:50.073Z,85.36
2019-02-14T04:48:50.057Z,85.25
2019-02-14T04:49:50.131Z,85.15
2019-02-14T04:50:50.084Z,84.84
2019-02-14T04:51:50.035Z,84.64
2019-02-14T04:52:50.069Z,84.53
2019-02-14T04:53:50.017Z,84.12
2019-02-14T04:54:49.999Z,84.53
2019-02-14T04:55:49.992Z,84.12
2019-02-14T04:56:50.000Z,84.01
2019-02-14T04:57:50.016Z,84.33
2019-02-14T04:58:49.961Z,84.53
2019-02-14T04:59:49.946Z,84.43
2019-02-14T05:00:49.937Z,84.33
2019-02-14T05:01:49.969Z,84.33
2019-02-14T05:02:49.954Z,84.43
2019-02-14T05:03:49.899Z,84.33
2019-02-14T05:04:49.893Z,83.81
2019-02-14T05:05:49.903Z,84.12
2019-02-14T05:06:49.872Z,84.33
2019-02-14T05:07:49.925Z,83.67
2019-02-14T05:08:49.856Z,84.12
2019-02-14T05:09:49.836Z,83.67
2019-02-14T05:10:49.889Z,84.08
2019-02-14T05:11:49.819Z,83.50
2019-02-14T05:12:49.811Z,83.87
2019-02-14T05:13:49.896Z,83.47
2019-02-14T05:14:49.838Z,84.12
2019-02-14T05:15:49.773Z,84.08
2019-02-14T05:16:49.765Z,84.19
2019-02-14T05:17:49.753Z,83.98
2019-02-14T05:18:49.740Z,83.15
2019-02-14T05:19:49.747Z,82.74
2019-02-14T05:20:49.767Z,83.15
2019-02-14T05:21:49.711Z,83.05
2019-02-14T05:22:49.772Z,83.05
2019-02-14T05:23:49.691Z,82.54
2019-02-14T05:24:49.680Z,82.64
2019-02-14T05:25:49.714Z,82.95
2019-02-14T05:26:49.677Z,83.05
2019-02-14T05:27:49.668Z,83.15
2019-02-14T05:28:49.677Z,82.33
2019-02-14T05:29:49.731Z,82.64
2019-02-14T05:30:49.731Z,82.98
2019-02-14T05:31:49.608Z,82.84
2019-02-14T05:32:49.601Z,82.02
2019-02-14T05:33:49.587Z,82.33
2019-02-14T05:34:49.577Z,82.12
2019-02-14T05:35:49.613Z,82.12
2019-02-14T05:36:52.838Z,82.12
2019-02-14T05:37:50.566Z,82.64
2019-02-14T05:38:50.339Z,82.23
2019-02-14T05:39:49.518Z,82.23
2019-02-14T05:40:49.523Z,82.43
2019-02-14T05:41:49.549Z,81.92
2019-02-14T05:42:49.516Z,82.02
2019-02-14T05:43:49.503Z,82.74
2019-02-14T05:44:49.479Z,82.64
2019-02-14T05:45:49.493Z,82.33
2019-02-14T05:46:49.497Z,82.12
2019-02-14T05:47:49.448Z,82.12
2019-02-14T05:48:49.471Z,82.12
2019-02-14T05:49:49.420Z,82.43
2019-02-14T05:50:49.408Z,82.23
2019-02-14T05:51:49.449Z,82.12
2019-02-14T05:52:49.383Z,82.02
2019-02-14T05:53:49.393Z,82.43
2019-02-14T05:54:49.371Z,82.23
2019-02-14T05:55:49.358Z,82.09
2019-02-14T05:56:49.391Z,82.64
2019-02-14T05:57:49.330Z,82.64
2019-02-14T05:58:49.317Z,82.33
2019-02-14T05:59:49.316Z,82.02
2019-02-14T06:00:49.307Z,82.33
2019-02-14T06:01:49.334Z,82.33
2019-02-14T06:02:49.347Z,82.33
2019-02-14T06:03:49.316Z,82.23
2019-02-14T06:04:49.262Z,82.02
2019-02-14T06:05:49.249Z,82.02
2019-02-14T06:06:49.255Z,82.23
2019-02-14T06:07:49.230Z,82.33
2019-02-14T06:08:49.251Z,82.54
2019-02-14T06:09:49.212Z,82.43
2019-02-14T06:10:49.216Z,82.33
2019-02-14T06:11:49.185Z,82.16
2019-02-14T06:12:49.176Z,82.43
2019-02-14T06:13:49.234Z,82.47
2019-02-14T06:14:49.157Z,82.43
2019-02-14T06:15:49.173Z,82.12
2019-02-14T06:16:49.148Z,82.23
2019-02-14T06:17:49.120Z,82.12
2019-02-14T06:18:49.124Z,82.43
2019-02-14T06:19:49.151Z,82.23
2019-02-14T06:20:49.119Z,82.37
2019-02-14T06:21:49.127Z,82.12
2019-02-14T06:22:49.101Z,82.02
2019-02-14T06:23:49.055Z,82.12
2019-02-14T06:24:49.048Z,82.02
2019-02-14T06:25:49.045Z,82.06
2019-02-14T06:26:49.075Z,81.92
2019-02-14T06:27:49.076Z,82.23
2019-02-14T06:28:49.003Z,82.54
2019-02-14T06:29:49.011Z,82.64
2019-02-14T06:30:48.987Z,82.74
2019-02-14T06:31:48.968Z,82.33
2019-02-14T06:32:48.968Z,81.40
2019-02-14T06:33:48.994Z,81.09
2019-02-14T06:34:48.955Z,81.20
2019-02-14T06:35:48.983Z,81.30
2019-02-14T06:36:48.927Z,80.79
2019-02-14T06:37:49.042Z,81.20
2019-02-14T06:38:48.999Z,81.51
2019-02-14T06:39:48.905Z,81.61
2019-02-14T06:40:48.875Z,81.20
2019-02-14T06:41:48.876Z,81.30
2019-02-14T06:42:48.861Z,81.71
2019-02-14T06:43:48.886Z,81.30
2019-02-14T06:44:48.848Z,81.30
2019-02-14T06:45:48.826Z,82.02
2019-02-14T06:46:49.817Z,81.71
2019-02-14T06:47:48.840Z,81.61
2019-02-14T06:48:48.799Z,81.51
2019-02-14T06:49:48.807Z,80.99
2019-02-14T06:50:48.787Z,80.68
2019-02-14T06:51:48.802Z,81.09
2019-02-14T06:52:48.801Z,81.20
2019-02-14T06:53:48.754Z,80.79
2019-02-14T06:54:48.743Z,80.79
2019-02-14T06:55:48.751Z,80.79
2019-02-14T06:56:48.727Z,80.89
2019-02-14T06:57:48.700Z,80.89
2019-02-14T06:58:48.748Z,80.68
2019-02-14T06:59:48.678Z,80.68
2019-02-14T07:00:48.663Z,80.58
2019-02-14T07:01:48.650Z,80.65
2019-02-14T07:02:48.644Z,80.75
2019-02-14T07:03:48.713Z,80.58
2019-02-14T07:04:48.623Z,80.44
2019-02-14T07:05:48.614Z,79.93
2019-02-14T07:06:48.596Z,80.23
2019-02-14T07:07:48.589Z,79.93
2019-02-14T07:08:48.642Z,80.02
2019-02-14T07:09:48.567Z,80.23
2019-02-14T07:10:48.566Z,80.02
2019-02-14T07:11:48.557Z,79.93
2019-02-14T07:12:48.582Z,80.33
2019-02-14T07:13:48.592Z,80.65
2019-02-14T07:14:49.295Z,80.33
2019-02-14T07:15:48.501Z,80.33
2019-02-14T07:16:48.500Z,80.02
2019-02-14T07:17:48.482Z,80.02
2019-02-14T07:18:48.471Z,80.02
2019-02-14T07:19:48.512Z,80.23
2019-02-14T07:20:48.454Z,80.33
2019-02-14T07:21:48.445Z,80.23
2019-02-14T07:22:48.439Z,79.93
2019-02-14T07:23:48.447Z,80.23
2019-02-14T07:24:48.458Z,80.44
2019-02-14T07:25:48.455Z,80.13
2019-02-14T07:26:48.398Z,79.72
2019-02-14T07:27:48.394Z,80.33
2019-02-14T07:28:48.389Z,79.93
2019-02-14T07:29:48.351Z,79.93
2019-02-14T07:30:48.351Z,80.02
2019-02-14T07:31:48.370Z,79.93
2019-02-14T07:32:48.324Z,79.93
2019-02-14T07:33:48.321Z,79.82
2019-02-14T07:34:48.339Z,80.13
2019-02-14T07:35:48.325Z,80.16
2019-02-14T07:36:48.319Z,80.33
2019-02-14T07:37:48.361Z,80.33
2019-02-14T07:38:48.250Z,79.93
2019-02-14T07:39:48.250Z,80.02
2019-02-14T07:40:48.260Z,79.82
2019-02-14T07:41:48.235Z,79.72
2019-02-14T07:42:48.256Z,79.72
2019-02-14T07:43:48.209Z,79.61
2019-02-14T07:44:48.190Z,80.13
2019-02-14T07:45:48.233Z,80.33
2019-02-14T07:46:48.172Z,80.44
2019-02-14T07:47:48.191Z,80.23
2019-02-14T07:48:48.212Z,80.02
2019-02-14T07:49:48.153Z,80.13
2019-02-14T07:50:48.142Z,80.33
2019-02-14T07:51:48.657Z,80.13
2019-02-14T07:52:48.141Z,80.13
2019-02-14T07:53:48.144Z,79.72
2019-02-14T07:54:48.088Z,79.72
2019-02-14T07:55:48.065Z,79.51
2019-02-14T07:56:48.064Z,79.51
2019-02-14T07:57:48.105Z,79.93
2019-02-14T07:58:48.099Z,80.13
2019-02-14T07:59:48.028Z,80.02
2019-02-14T08:00:48.011Z,80.02
2019-02-14T08:01:48.016Z,79.72
2019-02-14T08:02:47.986Z,79.61
2019-02-14T08:03:48.027Z,79.51
2019-02-14T08:04:48.039Z,79.61
2019-02-14T08:05:47.969Z,79.51
2019-02-14T08:06:47.957Z,79.61
2019-02-14T08:07:47.979Z,79.10
2019-02-14T08:08:47.986Z,79.61
2019-02-14T08:09:47.953Z,79.41
2019-02-14T08:10:47.897Z,79.72
2019-02-14T08:11:47.890Z,79.82
2019-02-14T08:12:47.887Z,79.72
2019-02-14T08:13:47.894Z,79.41
2019-02-14T08:14:47.937Z,78.89
2019-02-14T08:15:47.862Z,79.16
2019-02-14T08:16:47.838Z,79.37
2019-02-14T08:17:47.834Z,79.10
2019-02-14T08:18:47.809Z,79.06
2019-02-14T08:19:47.801Z,78.55
2019-02-14T08:20:47.821Z,78.44
2019-02-14T08:21:47.771Z,78.96
2019-02-14T08:22:47.760Z,78.86
2019-02-14T08:23:47.747Z,78.86
2019-02-14T08:24:48.990Z,78.96
2019-02-14T08:25:47.769Z,78.55
2019-02-14T08:26:47.728Z,78.96
2019-02-14T08:27:47.707Z,78.96
2019-02-14T08:28:47.738Z,78.75
2019-02-14T08:29:47.687Z,78.55
2019-02-14T08:30:47.762Z,78.75
2019-02-14T08:31:47.669Z,78.55
2019-02-14T08:32:47.653Z,78.86
2019-02-14T08:33:47.636Z,77.93
2019-02-14T08:34:47.649Z,78.55
2019-02-14T08:35:47.662Z,78.75
2019-02-14T08:36:47.603Z,78.55
2019-02-14T08:37:47.599Z,78.75
2019-02-14T08:38:47.582Z,78.55
2019-02-14T08:39:47.569Z,78.24
2019-02-14T08:40:47.642Z,77.83
2019-02-14T08:41:47.548Z,78.03
2019-02-14T08:42:47.532Z,78.20
2019-02-14T08:43:47.530Z,77.89
2019-02-14T08:44:47.514Z,78.20
2019-02-14T08:45:47.542Z,77.69
2019-02-14T08:46:47.552Z,77.38
2019-02-14T08:47:47.486Z,78.10
2019-02-14T08:48:47.469Z,77.58
2019-02-14T08:49:47.456Z,77.48
2019-02-14T08:50:47.450Z,77.58
2019-02-14T08:51:47.543Z,77.48
2019-02-14T08:52:47.441Z,77.28
2019-02-14T08:53:47.418Z,77.38
2019-02-14T08:54:47.412Z,76.83
2019-02-14T08:55:47.387Z,76.73
2019-02-14T08:56:47.381Z,76.86
2019-02-14T08:57:47.453Z,76.62
2019-02-14T08:58:47.402Z,77.17
2019-02-14T08:59:47.347Z,76.83
2019-02-14T09:00:47.359Z,76.11
2019-02-14T09:01:47.344Z,76.31
2019-02-14T09:02:47.372Z,76.42
2019-02-14T09:03:47.357Z,75.73
2019-02-14T09:04:47.295Z,76.21
2019-02-14T09:05:47.283Z,76.11
2019-02-14T09:06:47.269Z,76.01
2019-02-14T09:07:54.222Z,75.80
2019-02-14T09:08:48.282Z,75.80
2019-02-14T09:09:47.241Z,75.67
2019-02-14T09:10:47.238Z,75.90
2019-02-14T09:11:47.219Z,75.76
2019-02-14T09:12:47.212Z,75.49
2019-02-14T09:13:47.258Z,75.67
2019-02-14T09:14:47.194Z,74.63
2019-02-14T09:15:47.183Z,74.74
2019-02-14T09:16:47.273Z,74.74
2019-02-14T09:17:47.153Z,74.22
2019-02-14T09:18:47.248Z,74.12
2019-02-14T09:19:47.162Z,74.43
2019-02-14T09:20:47.223Z,74.43
2019-02-14T09:21:47.108Z,73.71
2019-02-14T09:22:47.314Z,74.40
2019-02-14T09:23:47.093Z,73.71
2019-02-14T09:24:47.398Z,73.68
2019-02-14T09:25:47.086Z,73.68
2019-02-14T09:26:47.047Z,73.16
2019-02-14T09:27:47.040Z,73.61
2019-02-14T09:28:47.033Z,73.78
2019-02-14T09:29:47.059Z,72.55
2019-02-14T09:30:47.063Z,73.16
2019-02-14T09:31:47.043Z,72.55
2019-02-14T09:32:46.987Z,73.16
2019-02-14T09:33:46.997Z,72.96
2019-02-14T09:34:47.006Z,73.06
2019-02-14T09:35:46.959Z,73.27
2019-02-14T09:36:46.946Z,73.36
2019-02-14T09:37:46.936Z,72.20
2019-02-14T09:38:46.947Z,72.92
2019-02-14T09:39:46.921Z,72.20
2019-02-14T09:40:46.940Z,71.79
2019-02-14T09:41:46.939Z,72.10
2019-02-14T09:42:46.885Z,71.79
2019-02-14T09:43:46.909Z,72.51
2019-02-14T09:44:46.860Z,71.97
2019-02-14T09:45:46.841Z,72.38
2019-02-14T09:46:46.860Z,71.97
2019-02-14T09:47:46.871Z,71.45
2019-02-14T09:48:46.817Z,71.35
2019-02-14T09:49:46.818Z,70.84
2019-02-14T09:50:46.791Z,70.63
2019-02-14T09:51:46.819Z,70.63
2019-02-14T09:52:46.816Z,70.73
2019-02-14T09:53:46.762Z,70.12
2019-02-14T09:54:46.750Z,69.91
2019-02-14T09:55:46.726Z,70.42
2019-02-14T09:56:46.766Z,70.63
2019-02-14T09:57:46.727Z,70.84
2019-02-14T09:58:46.758Z,70.01
2019-02-14T09:59:46.692Z,69.81
2019-02-14T10:00:46.673Z,70.01
2019-02-14T10:01:46.707Z,69.98
2019-02-14T10:02:46.660Z,69.88
2019-02-14T10:03:47.055Z,69.81
2019-02-14T10:04:46.647Z,69.67
2019-02-14T10:05:46.633Z,69.57
2019-02-14T10:06:46.747Z,69.50
2019-02-14T10:07:46.666Z,69.57
2019-02-14T10:08:46.581Z,69.88
2019-02-14T10:09:46.640Z,69.98
2019-02-14T10:10:46.569Z,69.47
2019-02-14T10:11:46.551Z,68.75
2019-02-14T10:12:46.547Z,68.85
2019-02-14T10:13:46.534Z,68.65
2019-02-14T10:14:46.512Z,68.75
2019-02-14T10:15:46.614Z,68.54
2019-02-14T10:16:46.504Z,68.34
2019-02-14T10:17:46.487Z,68.54
2019-02-14T10:18:46.480Z,68.75
2019-02-14T10:19:46.483Z,68.65
2019-02-14T10:20:46.489Z,69.06
2019-02-14T10:21:46.436Z,69.06
2019-02-14T10:22:46.505Z,68.75
2019-02-14T10:23:46.457Z,69.26
2019-02-14T10:24:46.405Z,68.65
2019-02-14T10:25:46.394Z,68.75
2019-02-14T10:26:46.427Z,69.06
2019-02-14T10:27:46.391Z,68.85
2019-02-14T10:28:46.393Z,68.75
2019-02-14T10:29:46.354Z,69.47
2019-02-14T10:30:46.339Z,69.40
2019-02-14T10:31:46.383Z,69.57
2019-02-14T10:32:46.332Z,69.37
2019-02-14T10:33:46.311Z,69.47
2019-02-14T10:34:46.312Z,69.06
2019-02-14T10:35:46.292Z,69.19
2019-02-14T10:36:46.271Z,69.26
2019-02-14T10:37:46.357Z,68.96
2019-02-14T10:38:46.303Z,69.16
2019-02-14T10:39:46.251Z,68.96
2019-02-14T10:40:46.240Z,69.37
2019-02-14T10:41:46.394Z,69.47
2019-02-14T10:42:46.236Z,69.16
2019-02-14T10:43:48.845Z,68.96
2019-02-14T10:44:46.202Z,68.85
2019-02-14T10:45:46.230Z,68.54
2019-02-14T10:46:46.168Z,68.75
2019-02-14T10:47:46.211Z,68.96
2019-02-14T10:48:46.157Z,68.75
2019-02-14T10:49:46.133Z,68.34
2019-02-14T10:50:46.122Z,68.65
2019-02-14T10:51:46.119Z,68.48
2019-02-14T10:52:46.146Z,69.06
2019-02-14T10:53:46.086Z,68.88
2019-02-14T10:54:46.083Z,68.68
2019-02-14T10:55:46.127Z,68.54
2019-02-14T10:56:46.057Z,68.13
2019-02-14T10:57:46.072Z,67.41
2019-02-14T10:58:46.060Z,67.41
2019-02-14T10:59:46.034Z,67.62
2019-02-14T11:00:46.022Z,67.32
2019-02-14T11:01:46.039Z,67.32
2019-02-14T11:02:45.993Z,66.46
2019-02-14T11:03:46.010Z,66.05
2019-02-14T11:04:47.127Z,66.05
2019-02-14T11:05:45.978Z,66.46
2019-02-14T11:06:45.994Z,66.05
2019-02-14T11:07:45.941Z,66.05
2019-02-14T11:08:45.931Z,65.23
2019-02-14T11:09:45.935Z,65.23
2019-02-14T11:10:45.935Z,65.61
2019-02-14T11:11:45.949Z,65.00
2019-02-14T11:12:45.926Z,65.00
2019-02-14T11:13:45.875Z,64.38
2019-02-14T11:14:45.873Z,64.59
2019-02-14T11:15:45.858Z,64.31
2019-02-14T11:16:45.878Z,64.92
2019-02-14T11:17:45.862Z,64.31
2019-02-14T11:18:45.916Z,64.92
2019-02-14T11:19:45.911Z,64.82
2019-02-14T11:20:45.877Z,64.82
2019-02-14T11:21:45.799Z,65.03
2019-02-14T11:22:45.813Z,64.72
2019-02-14T11:23:45.824Z,64.41
2019-02-14T11:24:45.829Z,64.34
2019-02-14T11:25:45.758Z,64.85
2019-02-14T11:26:45.734Z,64.95
2019-02-14T11:27:45.763Z,65.67
2019-02-14T11:28:45.777Z,65.06
2019-02-14T11:29:45.743Z,65.12
2019-02-14T11:30:45.692Z,64.54
2019-02-14T11:31:45.687Z,64.72
2019-02-14T11:32:45.665Z,64.51
2019-02-14T11:33:45.704Z,64.51
2019-02-14T11:34:45.686Z,64.61
2019-02-14T11:35:45.626Z,64.61
2019-02-14T11:36:45.663Z,64.17
2019-02-14T11:37:45.617Z,63.35
2019-02-14T11:38:45.601Z,63.25
2019-02-14T11:39:45.584Z,64.07
2019-02-14T11:40:45.628Z,63.07
2019-02-14T11:41:45.566Z,63.35
2019-02-14T11:42:45.551Z,64.20
2019-02-14T11:43:45.542Z,64.38
2019-02-14T11:44:45.548Z,63.35
2019-02-14T11:45:45.743Z,63.64
2019-02-14T11:46:51.250Z,63.05
2019-02-14T11:47:46.495Z,63.43
2019-02-14T11:48:45.486Z,63.29
2019-02-14T11:49:45.478Z,62.71
2019-02-14T11:50:45.690Z,62.61
2019-02-14T11:51:45.484Z,62.92
2019-02-14T11:52:45.449Z,62.99
2019-02-14T11:53:45.610Z,62.68
2019-02-14T11:54:45.434Z,61.96
2019-02-14T11:55:45.415Z,62.37
2019-02-14T11:56:45.586Z,62.40
2019-02-14T11:57:45.401Z,62.71
2019-02-14T11:58:45.434Z,62.48
2019-02-14T11:59:45.374Z,62.19
2019-02-14T12:00:45.404Z,61.99
2019-02-14T12:01:45.347Z,62.81
2019-02-14T12:02:45.337Z,61.89
2019-02-14T12:03:45.418Z,62.71
2019-02-14T12:04:45.374Z,62.71
2019-02-14T12:05:45.398Z,62.74
2019-02-14T12:06:45.598Z,62.61
2019-02-14T12:07:45.284Z,62.61
2019-02-14T12:08:57.718Z,62.61
2019-02-14T12:09:46.264Z,62.07
2019-02-14T12:10:45.254Z,61.96
2019-02-14T12:11:45.464Z,61.35
2019-02-14T12:12:45.273Z,61.76
2019-02-14T12:13:45.235Z,61.76
2019-02-14T12:14:45.226Z,62.17
2019-02-14T12:15:45.204Z,62.07
2019-02-14T12:16:45.183Z,62.07
2019-02-14T12:17:45.201Z,61.63
2019-02-14T12:18:45.588Z,61.66
2019-02-14T12:19:45.166Z,61.52
2019-02-14T12:20:45.143Z,61.73
2019-02-14T12:21:45.173Z,61.52
2019-02-14T12:22:47.002Z,61.32
2019-02-14T12:23:45.109Z,61.32
2019-02-14T12:24:45.101Z,60.81
2019-02-14T12:25:45.125Z,60.33
2019-02-14T12:26:45.074Z,60.42
2019-02-14T12:27:45.066Z,60.42
2019-02-14T12:28:45.107Z,60.22
2019-02-14T12:29:45.049Z,60.42
2019-02-14T12:30:45.056Z,61.76
2019-02-14T12:31:45.063Z,61.45
2019-02-14T12:32:45.029Z,61.04
2019-02-14T12:33:45.070Z,61.25
2019-02-14T12:34:45.023Z,60.84
2019-02-14T12:35:45.091Z,60.84
2019-02-14T12:36:44.991Z,60.81
2019-02-14T12:37:44.960Z,60.84
2019-02-14T12:38:45.097Z,60.74
2019-02-14T12:39:45.000Z,60.30
2019-02-14T12:40:44.935Z,60.30
2019-02-14T12:41:44.916Z,59.78
2019-02-14T12:42:44.913Z,60.10
2019-02-14T12:43:44.895Z,59.99
2019-02-14T12:44:44.927Z,59.96
2019-02-14T12:45:44.930Z,59.55
2019-02-14T12:46:44.861Z,60.06
2019-02-14T12:47:44.851Z,59.66
2019-02-14T12:48:44.879Z,59.76
2019-02-14T12:49:44.833Z,59.35
2019-02-14T12:50:44.877Z,59.86
2019-02-14T12:51:44.810Z,59.25
2019-02-14T12:52:44.796Z,59.35